Time;durP1;ratioP1;P1;durP2;ratioP2;P2;SDS_P1;SDS_P2;PMS_P1;PMS_P2;Temp;Humidity;BMP_temperature;BMP_pressure;BME280_temperature;BME280_humidity;BME280_pressure;Samples;Min_cycle;Max_cycle;Signal;HPM_P1;HPM_P2
2022/12/11 00:00:37;;;;;;;26.63;13.20;;;;;;;3.01;41.68;101266.53;7395910;19;20001;-60
2022/12/11 00:03:03;;;;;;;24.40;12.63;;;;;;;2.77;41.70;101253.72;7391519;19;20003;-60
2022/12/11 00:05:28;;;;;;;27.13;13.90;;;;;;;2.93;41.74;101263.31;7394375;19;20600;-60
2022/12/11 00:07:54;;;;;;;26.80;13.93;;;;;;;2.80;41.99;101258.53;7395086;19;20073;-60
2022/12/11 00:10:20;;;;;;;24.65;13.23;;;;;;;2.80;41.89;101253.13;7394418;19;19999;-61
2022/12/11 00:12:45;;;;;;;26.48;13.65;;;;;;;2.72;42.04;101257.22;7389412;19;20011;-54
2022/12/11 00:15:11;;;;;;;25.95;13.90;;;;;;;2.77;42.02;101256.41;7395555;19;20469;-56
2022/12/11 00:17:37;;;;;;;24.40;13.10;;;;;;;2.67;42.01;101259.13;7393925;19;20035;-54
2022/12/11 00:20:03;;;;;;;29.02;14.20;;;;;;;2.77;41.95;101249.13;7393773;19;20409;-53
2022/12/11 00:22:30;;;;;;;26.23;13.93;;;;;;;2.79;41.68;101244.25;7393156;19;19993;-56
2022/12/11 00:24:55;;;;;;;26.17;13.70;;;;;;;2.82;42.08;101245.59;7394487;19;20002;-56
2022/12/11 00:27:21;;;;;;;24.83;13.15;;;;;;;2.95;41.80;101250.38;7394132;19;20316;-58
2022/12/11 00:29:47;;;;;;;26.42;13.55;;;;;;;3.09;41.28;101249.75;7392593;19;20002;-56
2022/12/11 00:32:13;;;;;;;24.90;13.02;;;;;;;2.94;41.64;101247.94;7392861;19;20474;-57
2022/12/11 00:34:38;;;;;;;25.30;13.57;;;;;;;3.01;41.43;101244.94;7393545;19;20732;-57
2022/12/11 00:37:04;;;;;;;24.85;14.07;;;;;;;3.09;41.40;101249.75;7393331;19;19995;-57
2022/12/11 00:39:30;;;;;;;25.55;12.20;;;;;;;3.03;41.47;101246.25;7392674;19;20070;-57
2022/12/11 00:41:57;;;;;;;25.20;13.07;;;;;;;3.08;41.45;101250.84;7393379;19;20003;-56
2022/12/11 00:44:23;;;;;;;24.73;12.70;;;;;;;3.07;41.36;101244.63;7392782;19;20011;-57
2022/12/11 00:46:48;;;;;;;25.88;13.15;;;;;;;2.98;41.56;101243.59;7393425;19;20066;-56
2022/12/11 00:49:15;;;;;;;25.13;12.85;;;;;;;2.83;41.81;101241.00;7392707;19;19999;-57
2022/12/11 00:51:41;;;;;;;24.35;12.27;;;;;;;2.89;41.77;101245.28;7391226;19;19995;-56
2022/12/11 00:54:07;;;;;;;23.33;12.13;;;;;;;2.91;41.67;101249.31;7391985;19;20445;-56
2022/12/11 00:56:32;;;;;;;25.35;13.38;;;;;;;2.97;41.67;101245.50;7390880;19;20010;-57
2022/12/11 00:58:58;;;;;;;23.75;13.00;;;;;;;2.88;41.82;101247.16;7391665;19;20003;-56
2022/12/11 01:01:24;;;;;;;25.75;12.85;;;;;;;2.89;41.83;101246.09;7392955;19;20094;-57
2022/12/11 01:03:52;;;;;;;24.08;12.98;;;;;;;2.67;42.10;101248.34;7390907;19;20003;-56
2022/12/11 01:06:20;;;;;;;23.42;12.63;;;;;;;2.67;42.21;101251.03;7392904;19;20001;-57
2022/12/11 01:08:46;;;;;;;25.58;12.68;;;;;;;2.88;41.95;101255.25;7393249;19;19994;-56
2022/12/11 01:11:14;;;;;;;24.30;13.27;;;;;;;2.98;41.79;101260.63;7392913;19;20070;-56
2022/12/11 01:13:41;;;;;;;25.08;13.63;;;;;;;2.72;42.05;101259.13;7390222;19;20010;-56
2022/12/11 01:16:10;;;;;;;27.23;13.13;;;;;;;2.66;42.27;101254.84;7391201;19;20007;-56
2022/12/11 01:18:37;;;;;;;24.05;12.55;;;;;;;2.87;42.09;101263.59;7391720;19;20002;-54
2022/12/11 01:21:09;;;;;;;23.40;12.32;;;;;;;2.88;41.87;101265.22;7390671;19;20481;-55
2022/12/11 01:23:35;;;;;;;25.17;12.90;;;;;;;2.88;42.07;101263.34;7390422;19;19999;-55
2022/12/11 01:26:09;;;;;;;26.67;13.82;;;;;;;3.00;41.82;101267.59;7392798;19;20026;-55
2022/12/11 01:28:35;;;;;;;25.15;12.45;;;;;;;2.93;41.76;101263.31;7392370;19;20026;-55
2022/12/11 01:31:01;;;;;;;28.90;13.88;;;;;;;2.91;42.13;101259.28;7392831;19;20007;-56
2022/12/11 01:33:28;;;;;;;25.33;13.63;;;;;;;2.92;41.84;101255.53;7389614;19;20022;-57
2022/12/11 01:35:53;;;;;;;24.27;12.48;;;;;;;2.53;42.74;101256.22;7390719;19;20002;-55
2022/12/11 01:38:19;;;;;;;23.70;12.15;;;;;;;2.67;42.66;101253.72;7392185;19;20014;-53
2022/12/11 01:40:47;;;;;;;26.25;13.43;;;;;;;2.76;42.58;101257.47;7391668;19;19998;-55
2022/12/11 01:43:12;;;;;;;27.98;13.13;;;;;;;2.89;42.15;101256.88;7389760;19;20025;-55
2022/12/11 01:45:43;;;;;;;23.77;12.15;;;;;;;2.86;42.16;101262.81;7390428;19;20007;-56
2022/12/11 01:48:14;;;;;;;25.15;13.00;;;;;;;2.77;42.14;101259.91;7391611;19;20382;-56
2022/12/11 01:50:48;;;;;;;23.20;12.55;;;;;;;2.89;42.21;101266.84;7392834;19;20007;-56
2022/12/11 01:53:26;;;;;;;22.50;11.88;;;;;;;3.07;41.57;101262.69;7389882;19;20062;-56
2022/12/11 01:55:54;;;;;;;24.73;12.82;;;;;;;3.06;41.75;101261.09;7392638;19;19999;-56
2022/12/11 01:58:24;;;;;;;24.48;12.60;;;;;;;3.03;41.72;101261.66;7389010;19;20013;-56
2022/12/11 02:00:52;;;;;;;22.33;12.50;;;;;;;2.93;42.04;101266.00;7391461;19;20485;-56
2022/12/11 02:03:18;;;;;;;23.80;12.50;;;;;;;2.98;41.84;101249.81;7388212;19;20462;-56
2022/12/11 02:05:44;;;;;;;25.58;12.98;;;;;;;2.84;42.18;101254.19;7391727;19;20114;-55
2022/12/11 02:08:10;;;;;;;26.60;12.95;;;;;;;2.95;42.22;101254.94;7390469;19;20006;-54
2022/12/11 02:10:48;;;;;;;24.42;12.40;;;;;;;2.79;42.09;101246.13;7389621;19;20069;-52
2022/12/11 02:13:22;;;;;;;24.23;12.50;;;;;;;2.59;42.73;101242.44;7386290;19;20010;-54
2022/12/11 02:15:53;;;;;;;24.08;13.63;;;;;;;2.68;42.15;101239.97;7389744;19;20002;-53
2022/12/11 02:18:29;;;;;;;25.05;13.57;;;;;;;2.76;42.30;101244.78;7389373;19;20015;-51
2022/12/11 02:21:01;;;;;;;26.02;13.40;;;;;;;2.67;42.65;101249.16;7391173;19;20003;-54
2022/12/11 02:23:36;;;;;;;23.83;13.13;;;;;;;2.81;42.40;101254.75;7388275;19;20033;-54
2022/12/11 02:26:10;;;;;;;25.10;12.80;;;;;;;2.71;42.39;101241.31;7391631;19;20327;-54
2022/12/11 02:28:48;;;;;;;;;;;;;;;2.75;42.18;101245.91;7389609;19;20336;-56
2022/12/11 02:31:34;;;;;;;24.42;12.95;;;;;;;2.84;42.13;101254.19;7391293;19;20347;-55
2022/12/11 02:34:12;;;;;;;23.73;12.52;;;;;;;2.71;42.33;101255.59;7389661;19;19999;-55
2022/12/11 02:36:44;;;;;;;25.70;12.98;;;;;;;2.86;41.85;101252.03;7390658;19;20027;-55
2022/12/11 02:39:12;;;;;;;25.52;12.60;;;;;;;2.87;41.88;101244.72;7389366;19;20450;-55
2022/12/11 02:41:43;;;;;;;26.73;13.23;;;;;;;2.69;42.02;101238.09;7389051;19;20006;-55
2022/12/11 02:44:11;;;;;;;23.05;12.30;;;;;;;2.82;42.05;101237.50;7388577;19;19998;-54
2022/12/11 02:46:38;;;;;;;22.38;12.85;;;;;;;3.00;41.66;101240.63;7390700;19;20003;-53
2022/12/11 02:49:06;;;;;;;24.30;12.52;;;;;;;2.85;41.92;101234.25;7390791;19;19995;-54
2022/12/11 02:51:37;;;;;;;23.77;12.30;;;;;;;2.87;41.90;101237.47;7389436;19;20482;-54
2022/12/11 02:54:07;;;;;;;22.80;12.32;;;;;;;2.98;41.79;101230.13;7389322;19;19998;-54
2022/12/11 02:56:40;;;;;;;25.17;12.73;;;;;;;2.96;42.00;101230.41;7390140;19;20002;-55
2022/12/11 02:59:15;;;;;;;24.03;13.20;;;;;;;3.00;41.82;101230.63;7389178;19;20005;-53
2022/12/11 03:01:41;;;;;;;22.80;12.93;;;;;;;2.96;41.76;101225.00;7389644;19;20239;-52
2022/12/11 03:04:08;;;;;;;25.50;12.88;;;;;;;2.81;42.01;101224.31;7389872;19;19998;-55
2022/12/11 03:06:43;;;;;;;25.55;12.80;;;;;;;2.65;42.20;101228.94;7389730;19;20010;-54
2022/12/11 03:09:09;;;;;;;24.45;12.60;;;;;;;2.64;42.29;101221.97;7395075;19;20002;-55
2022/12/11 03:11:34;;;;;;;25.17;12.05;;;;;;;2.76;41.75;101219.72;7396267;19;20073;-56
2022/12/11 03:14:01;;;;;;;21.95;11.68;;;;;;;2.79;41.77;101219.19;7393276;19;20469;-55
2022/12/11 03:16:41;;;;;;;23.52;12.30;;;;;;;2.71;41.72;101222.47;7397084;19;20003;-56
2022/12/11 03:19:11;;;;;;;25.25;12.55;;;;;;;2.66;41.88;101225.97;7392902;19;19990;-56
2022/12/11 03:21:48;;;;;;;24.50;12.02;;;;;;;2.68;41.96;101217.63;7396444;19;20025;-56
2022/12/11 03:24:42;;;;;;;22.65;12.40;;;;;;;2.71;41.97;101227.84;7394865;19;20329;-55
2022/12/11 03:27:30;;;;;;;23.25;12.23;;;;;;;2.91;41.57;101216.16;7395872;19;20016;-55
2022/12/11 03:30:07;;;;;;;26.42;13.57;;;;;;;2.87;41.74;101210.50;7396346;19;20046;-54
2022/12/11 03:32:41;;;;;;;23.35;12.00;;;;;;;2.70;41.99;101220.84;7395114;19;20010;-54
2022/12/11 03:35:22;;;;;;;21.55;12.05;;;;;;;2.60;41.99;101213.59;7395933;19;20003;-56
2022/12/11 03:37:51;;;;;;;23.98;12.70;;;;;;;2.62;42.14;101219.53;7395958;19;20015;-56
2022/12/11 03:40:20;;;;;;;23.42;12.15;;;;;;;2.80;41.96;101220.78;7394938;19;20027;-56
2022/12/11 03:42:51;;;;;;;23.00;12.38;;;;;;;2.75;41.87;101215.41;7394296;19;20015;-57
2022/12/11 03:45:19;;;;;;;22.48;11.32;;;;;;;2.74;42.12;101208.44;7393724;19;20003;-57
2022/12/11 03:47:46;;;;;;;24.15;12.55;;;;;;;2.71;42.22;101207.09;7394739;19;20055;-56
2022/12/11 03:50:15;;;;;;;25.70;13.18;;;;;;;2.73;42.29;101207.59;7396107;19;19994;-57
2022/12/11 03:52:43;;;;;;;24.42;13.23;;;;;;;2.75;42.16;101201.94;7393499;19;20014;-56
2022/12/11 03:55:12;;;;;;;25.83;13.18;;;;;;;2.80;41.67;101199.22;7396444;19;19997;-57
2022/12/11 03:57:38;;;;;;;25.48;12.88;;;;;;;2.66;42.27;101207.09;7393375;19;20005;-57
2022/12/11 04:00:06;;;;;;;25.27;12.52;;;;;;;2.79;41.90;101208.41;7394549;19;20387;-57
2022/12/11 04:02:32;;;;;;;26.20;12.50;;;;;;;2.78;41.84;101212.16;7393098;19;20032;-57
2022/12/11 04:04:58;;;;;;;23.13;12.13;;;;;;;2.69;42.38;101216.53;7392759;19;19995;-57
2022/12/11 04:07:23;;;;;;;24.63;12.90;;;;;;;2.57;42.40;101212.28;7393197;19;20005;-56
2022/12/11 04:09:49;;;;;;;25.77;12.65;;;;;;;2.70;41.88;101216.28;7395093;19;20009;-57
2022/12/11 04:12:15;;;;;;;23.77;12.95;;;;;;;2.73;42.05;101217.59;7393175;19;20003;-57
2022/12/11 04:15:02;;;;;;;25.80;12.50;;;;;;;2.57;42.23;101217.66;7394131;19;19998;-57
2022/12/11 04:26:10;;;;;;;23.20;12.18;;;;;;;2.76;42.02;101222.44;7393836;19;20252;-56
2022/12/11 04:28:36;;;;;;;23.60;13.07;;;;;;;2.63;42.12;101231.13;7394246;19;19994;-57
2022/12/11 04:31:03;;;;;;;23.92;12.70;;;;;;;2.62;42.30;101233.03;7394715;19;20007;-57
2022/12/11 04:33:29;;;;;;;25.13;12.48;;;;;;;2.73;42.05;101233.75;7391546;19;19998;-57
2022/12/11 04:35:59;;;;;;;24.35;13.05;;;;;;;2.64;42.05;101227.34;7392254;19;20011;-56
2022/12/11 04:38:25;;;;;;;25.83;12.95;;;;;;;2.36;42.62;101221.53;7393262;19;20048;-57
2022/12/11 04:41:04;;;;;;;24.08;12.90;;;;;;;2.61;42.04;101231.41;7393679;19;19998;-57
2022/12/11 04:43:30;;;;;;;25.65;13.38;;;;;;;2.88;41.51;101230.19;7392453;19;20062;-57
2022/12/11 04:46:07;;;;;;;24.90;13.05;;;;;;;2.93;41.61;101227.44;7394501;19;20015;-57
2022/12/11 04:48:34;;;;;;;22.77;12.23;;;;;;;2.96;41.55;101222.31;7391161;19;20006;-56
2022/12/11 04:51:00;;;;;;;25.92;14.13;;;;;;;2.85;41.67;101228.88;7393946;19;19999;-57
2022/12/11 04:53:26;;;;;;;24.25;13.20;;;;;;;2.69;42.01;101219.25;7390619;19;20062;-57
2022/12/11 04:55:52;;;;;;;24.65;12.27;;;;;;;2.64;42.24;101220.06;7394034;19;20006;-57
2022/12/11 04:58:18;;;;;;;27.40;13.43;;;;;;;2.67;41.92;101224.91;7391986;19;19999;-57
2022/12/11 05:00:44;;;;;;;26.63;13.32;;;;;;;2.76;41.90;101225.91;7393301;19;20305;-57
2022/12/11 05:03:10;;;;;;;27.23;12.45;;;;;;;2.88;41.62;101228.28;7390641;19;19995;-57
2022/12/11 05:05:36;;;;;;;22.02;12.00;;;;;;;2.87;41.42;101232.09;7393588;19;19998;-57
2022/12/11 05:08:02;;;;;;;23.05;12.32;;;;;;;2.93;41.61;101225.56;7392124;19;20502;-56
2022/12/11 05:10:27;;;;;;;25.88;12.57;;;;;;;2.82;41.86;101225.88;7390708;19;19991;-56
2022/12/11 05:12:53;;;;;;;22.65;12.07;;;;;;;2.70;42.05;101229.75;7390626;19;20331;-56
2022/12/11 05:15:19;;;;;;;23.05;12.40;;;;;;;2.67;42.19;101229.47;7392140;19;19999;-57
2022/12/11 05:17:44;;;;;;;24.42;12.40;;;;;;;2.82;41.81;101224.03;7393068;19;20002;-57
2022/12/11 05:20:10;;;;;;;24.92;12.40;;;;;;;2.75;41.89;101223.50;7392166;19;20021;-56
2022/12/11 05:22:37;;;;;;;23.88;12.35;;;;;;;2.44;42.53;101220.16;7391758;19;20013;-56
2022/12/11 05:25:03;;;;;;;25.25;13.00;;;;;;;2.34;42.64;101221.00;7393154;19;20040;-56
2022/12/11 05:27:29;;;;;;;26.00;13.32;;;;;;;2.53;42.27;101224.69;7391795;19;20473;-56
2022/12/11 05:29:55;;;;;;;26.00;12.82;;;;;;;2.69;42.00;101225.44;7391361;19;20010;-56
2022/12/11 05:32:20;;;;;;;24.33;12.48;;;;;;;2.82;41.73;101220.50;7388502;19;19999;-56
2022/12/11 05:34:46;;;;;;;25.13;13.13;;;;;;;2.64;42.17;101222.75;7392114;19;20025;-56
2022/12/11 05:37:12;;;;;;;24.38;12.68;;;;;;;2.85;41.72;101230.72;7392271;19;20014;-57
2022/12/11 05:39:38;;;;;;;25.50;13.85;;;;;;;2.83;41.98;101236.41;7390567;19;20478;-56
2022/12/11 05:42:04;;;;;;;24.20;13.00;;;;;;;2.85;41.76;101238.81;7389686;19;20039;-56
2022/12/11 05:44:29;;;;;;;27.25;13.63;;;;;;;2.85;41.78;101234.25;7390925;19;20486;-56
2022/12/11 05:46:55;;;;;;;24.15;12.50;;;;;;;2.88;41.70;101225.59;7391529;19;20006;-57
2022/12/11 05:49:21;;;;;;;27.27;13.18;;;;;;;2.77;41.71;101229.44;7392414;19;20003;-56
2022/12/11 05:51:46;;;;;;;23.55;12.40;;;;;;;2.82;41.95;101229.41;7390547;19;19995;-56
2022/12/11 05:54:12;;;;;;;24.02;12.55;;;;;;;2.87;41.75;101229.38;7391877;19;20003;-56
2022/12/11 05:56:38;;;;;;;23.23;12.18;;;;;;;2.87;41.53;101224.00;7390682;19;20330;-56
2022/12/11 05:59:05;;;;;;;25.13;12.73;;;;;;;2.80;41.93;101226.16;7390656;19;20009;-56
2022/12/11 06:01:33;;;;;;;23.65;13.07;;;;;;;2.79;41.79;101219.97;7391711;19;20502;-56
2022/12/11 06:04:00;;;;;;;23.83;11.32;;;;;;;2.58;42.22;101219.28;7390717;19;20002;-56
2022/12/11 06:06:27;;;;;;;24.23;12.80;;;;;;;2.65;42.28;101223.56;7391698;19;20009;-56
2022/12/11 06:08:54;;;;;;;22.95;11.95;;;;;;;2.82;41.96;101221.31;7390219;19;20003;-57
2022/12/11 06:11:20;;;;;;;23.73;12.48;;;;;;;2.77;41.79;101214.06;7390768;19;20007;-56
2022/12/11 06:13:47;;;;;;;23.13;12.27;;;;;;;2.78;41.89;101201.38;7388144;19;20010;-56
2022/12/11 06:16:13;;;;;;;24.27;12.60;;;;;;;2.82;41.95;101207.84;7391380;19;19998;-55
2022/12/11 06:18:42;;;;;;;24.08;11.98;;;;;;;2.80;42.02;101212.69;7390829;19;19991;-56
2022/12/11 06:21:16;;;;;;;22.92;12.25;;;;;;;2.76;41.84;101208.94;7391478;19;19999;-56
2022/12/11 06:23:43;;;;;;;23.75;11.77;;;;;;;2.72;42.22;101208.72;7389883;19;20092;-56
2022/12/11 06:26:09;;;;;;;22.08;12.50;;;;;;;2.77;42.13;101205.19;7390806;19;20022;-56
2022/12/11 06:28:36;;;;;;;24.00;11.80;;;;;;;2.78;42.08;101198.69;7390679;19;19995;-56
2022/12/11 06:31:02;;;;;;;23.20;12.00;;;;;;;2.70;42.14;101200.09;7391178;19;20002;-56
2022/12/11 06:33:29;;;;;;;24.45;13.05;;;;;;;2.73;42.13;101199.50;7391065;19;19991;-56
2022/12/11 06:35:55;;;;;;;23.20;12.48;;;;;;;2.75;41.82;101202.75;7390660;19;20003;-56
2022/12/11 06:38:22;;;;;;;24.55;12.85;;;;;;;2.83;41.91;101195.97;7390571;19;19998;-56
2022/12/11 06:40:55;;;;;;;23.63;11.75;;;;;;;2.83;41.64;101203.25;7389872;19;20009;-56
2022/12/11 06:43:21;;;;;;;24.85;12.20;;;;;;;2.76;41.91;101208.94;7389984;19;20026;-56
2022/12/11 06:45:47;;;;;;;22.77;12.07;;;;;;;2.78;41.92;101209.47;7396334;19;20006;-56
2022/12/11 06:48:13;;;;;;;23.65;12.00;;;;;;;2.70;42.07;101215.44;7397790;19;20006;-56
2022/12/11 06:50:38;;;;;;;24.67;12.20;;;;;;;2.75;42.12;101213.53;7397652;19;19991;-56
2022/12/11 06:53:04;;;;;;;26.58;13.32;;;;;;;2.73;42.18;101221.06;7394262;19;19995;-57
2022/12/11 06:55:30;;;;;;;24.08;12.60;;;;;;;2.76;42.04;101219.72;7397120;19;20003;-57
2022/12/11 06:57:56;;;;;;;25.98;12.88;;;;;;;2.82;42.00;101218.63;7397254;19;20002;-57
2022/12/11 07:00:21;;;;;;;23.50;12.43;;;;;;;2.83;41.95;101214.84;7396108;19;19995;-57
2022/12/11 07:02:49;;;;;;;22.88;11.73;;;;;;;2.83;41.91;101222.13;7395397;19;19995;-56
2022/12/11 07:05:15;;;;;;;25.05;12.68;;;;;;;2.72;42.15;101219.47;7395464;19;19998;-56
2022/12/11 07:07:41;;;;;;;20.73;11.63;;;;;;;2.68;42.31;101217.63;7395274;19;20348;-56
2022/12/11 07:10:07;;;;;;;25.90;12.75;;;;;;;2.72;42.08;101213.28;7395209;19;19998;-56
2022/12/11 07:12:33;;;;;;;24.85;12.32;;;;;;;2.58;42.38;101213.91;7394070;19;20047;-57
2022/12/11 07:14:58;;;;;;;24.50;12.73;;;;;;;2.50;42.54;101214.47;7396866;19;19998;-56
2022/12/11 07:17:24;;;;;;;25.42;13.20;;;;;;;2.50;42.81;101222.56;7397060;19;20038;-57
2022/12/11 07:19:50;;;;;;;26.15;13.05;;;;;;;2.60;42.54;101211.72;7394325;19;20024;-56
2022/12/11 07:22:16;;;;;;;23.65;12.07;;;;;;;2.64;42.43;101216.56;7394295;19;20062;-56
2022/12/11 07:24:41;;;;;;;25.95;12.82;;;;;;;2.49;42.43;101220.94;7396425;19;20003;-56
2022/12/11 07:27:08;;;;;;;23.88;12.63;;;;;;;2.46;42.72;101226.88;7395845;19;20561;-56
2022/12/11 07:29:34;;;;;;;23.10;12.40;;;;;;;2.68;42.32;101220.31;7396611;19;20010;-56
2022/12/11 07:31:59;;;;;;;25.25;12.93;;;;;;;2.61;42.52;101224.09;7395907;19;20011;-56
2022/12/11 07:34:25;;;;;;;25.75;12.93;;;;;;;2.55;42.29;101227.94;7394206;19;20014;-56
2022/12/11 07:36:50;;;;;;;26.75;12.50;;;;;;;2.51;42.54;101221.47;7396760;19;20002;-56
2022/12/11 07:39:16;;;;;;;25.15;13.38;;;;;;;2.52;42.47;101219.59;7393145;19;20019;-56
2022/12/11 07:41:42;;;;;;;24.73;12.88;;;;;;;2.63;42.23;101220.34;7393269;19;20489;-56
2022/12/11 07:44:08;;;;;;;26.02;12.63;;;;;;;2.64;42.27;101219.28;7395213;19;20090;-56
2022/12/11 07:46:34;;;;;;;24.08;12.20;;;;;;;2.56;42.29;101216.03;7395724;19;20018;-57
2022/12/11 07:49:00;;;;;;;26.63;13.20;;;;;;;2.71;42.15;101230.53;7395162;19;20095;-56
2022/12/11 07:51:29;;;;;;;52.72;20.55;;;;;;;2.74;42.11;101228.09;7395003;19;19999;-56
2022/12/11 07:54:00;;;;;;;63.35;24.33;;;;;;;2.44;42.82;101222.84;7393634;19;19998;-56
2022/12/11 07:56:27;;;;;;;33.17;15.88;;;;;;;2.67;42.19;101226.78;7393871;19;19995;-56
2022/12/11 07:58:53;;;;;;;23.48;12.90;;;;;;;2.77;42.20;101219.47;7393637;19;20022;-56
2022/12/11 08:01:22;;;;;;;27.70;14.05;;;;;;;2.80;42.04;101220.78;7394358;19;20007;-56
2022/12/11 08:03:48;;;;;;;24.08;13.50;;;;;;;2.63;42.38;101223.03;7394869;19;20013;-55
2022/12/11 08:06:14;;;;;;;32.88;17.42;;;;;;;2.79;42.33;101224.56;7394025;19;20002;-56
2022/12/11 08:08:40;;;;;;;34.17;18.73;;;;;;;2.83;42.02;101220.22;7395366;19;20014;-56
2022/12/11 08:11:09;;;;;;;29.42;16.80;;;;;;;2.69;42.30;101220.03;7394993;19;20033;-57
2022/12/11 08:13:35;;;;;;;26.67;14.88;;;;;;;2.83;42.11;101230.22;7392159;19;20017;-56
2022/12/11 08:16:08;;;;;;;30.60;16.40;;;;;;;2.81;42.25;101232.38;7394947;19;19998;-56
2022/12/11 08:18:35;;;;;;;32.83;19.50;;;;;;;2.80;42.08;101228.88;7393075;19;20481;-56
2022/12/11 08:21:06;;;;;;;30.67;19.42;;;;;;;2.77;42.16;101230.25;7391727;19;20487;-56
2022/12/11 08:23:32;;;;;;;27.50;15.52;;;;;;;2.72;42.15;101229.47;7393515;19;20459;-57
2022/12/11 08:25:58;;;;;;;31.35;17.70;;;;;;;2.87;42.18;101234.78;7392173;19;20003;-59
2022/12/11 08:28:23;;;;;;;33.65;19.65;;;;;;;2.90;41.92;101236.09;7394695;19;20332;-58
2022/12/11 08:30:49;;;;;;;26.95;15.35;;;;;;;2.89;42.12;101235.28;7392897;19;20315;-56
2022/12/11 08:33:15;;;;;;;26.40;14.23;;;;;;;2.74;42.38;101232.69;7391516;19;19999;-56
2022/12/11 08:35:40;;;;;;;29.65;14.98;;;;;;;2.88;42.08;101244.47;7394270;19;20003;-56
2022/12/11 08:38:06;;;;;;;26.65;14.52;;;;;;;2.82;42.01;101234.81;7392919;19;19995;-56
2022/12/11 08:40:32;;;;;;;26.08;13.57;;;;;;;2.56;42.60;101240.31;7393922;19;20489;-56
2022/12/11 08:42:57;;;;;;;28.00;16.38;;;;;;;2.70;42.34;101237.84;7390827;19;20466;-56
2022/12/11 08:45:23;;;;;;;26.58;14.88;;;;;;;2.49;42.88;101239.00;7393795;19;20021;-56
2022/12/11 08:47:55;;;;;;;26.75;16.13;;;;;;;2.61;42.37;101244.88;7392429;19;19999;-56
2022/12/11 08:50:21;;;;;;;27.13;14.27;;;;;;;2.67;42.50;101248.34;7393672;19;20014;-56
2022/12/11 08:52:47;;;;;;;26.90;15.45;;;;;;;2.76;42.22;101244.00;7390954;19;20458;-61
2022/12/11 08:55:12;;;;;;;26.65;14.60;;;;;;;2.72;42.14;101251.03;7393555;19;20464;-56
2022/12/11 08:57:38;;;;;;;26.85;13.68;;;;;;;2.70;42.38;101253.19;7393837;19;20063;-56
2022/12/11 09:00:07;;;;;;;25.67;13.98;;;;;;;2.55;42.79;101249.47;7391773;19;20327;-56
2022/12/11 09:02:34;;;;;;;25.85;12.98;;;;;;;2.73;42.35;101252.63;7391711;19;20013;-57
2022/12/11 09:04:59;;;;;;;26.98;14.00;;;;;;;2.66;42.43;101252.13;7392000;19;19999;-56
2022/12/11 09:07:25;;;;;;;24.98;12.77;;;;;;;2.58;42.56;101248.94;7392017;19;19995;-57
2022/12/11 09:09:54;;;;;;;26.15;12.63;;;;;;;2.69;42.54;101252.38;7392996;19;19995;-57
2022/12/11 09:12:20;;;;;;;26.48;13.95;;;;;;;2.83;42.20;101252.56;7390863;19;20014;-58
2022/12/11 09:14:45;;;;;;;29.23;13.40;;;;;;;2.79;42.07;101252.34;7391363;19;20013;-57
2022/12/11 09:17:11;;;;;;;25.38;13.45;;;;;;;2.66;42.29;101254.84;7392997;19;20058;-57
2022/12/11 09:19:37;;;;;;;27.42;13.00;;;;;;;2.71;42.40;101244.03;7388827;19;20009;-57
2022/12/11 09:22:02;;;;;;;26.33;13.68;;;;;;;2.78;42.16;101231.03;7391689;19;20316;-57
2022/12/11 09:24:28;;;;;;;27.60;13.73;;;;;;;2.87;42.19;101237.47;7392238;19;20028;-57
2022/12/11 09:26:57;;;;;;;34.65;19.33;;;;;;;3.01;41.70;101234.97;7390419;19;20009;-57
2022/12/11 09:29:22;;;;;;;31.73;18.50;;;;;;;2.79;42.07;101227.28;7393003;19;20003;-57
2022/12/11 09:31:48;;;;;;;32.50;18.38;;;;;;;2.83;42.12;101231.00;7391211;19;20006;-57
2022/12/11 09:34:14;;;;;;;27.35;14.82;;;;;;;2.93;41.96;101232.84;7391347;19;20062;-57
2022/12/11 09:36:41;;;;;;;29.15;15.55;;;;;;;2.88;41.98;101239.06;7391592;19;20014;-57
2022/12/11 09:39:08;;;;;;;27.50;13.77;;;;;;;2.99;41.95;101229.03;7390818;19;19999;-58
2022/12/11 09:41:45;;;;;;;24.92;13.13;;;;;;;2.89;42.09;101229.09;7389388;19;19999;-57
2022/12/11 09:44:27;;;;;;;26.35;13.32;;;;;;;2.82;42.07;101232.13;7390067;19;19995;-57
2022/12/11 09:46:53;;;;;;;27.33;13.35;;;;;;;2.75;42.01;101228.88;7392170;19;20004;-57
2022/12/11 09:49:45;;;;;;;28.00;13.35;;;;;;;2.52;42.57;101225.78;7391544;19;20485;-57
2022/12/11 09:52:19;;;;;;;26.40;13.38;;;;;;;2.65;42.53;101227.06;7389586;19;20006;-57
2022/12/11 09:54:56;;;;;;;29.08;14.95;;;;;;;2.81;42.35;101224.31;7396541;19;20065;-57
2022/12/11 09:57:39;;;;;;;30.77;15.60;;;;;;;2.90;41.92;101220.75;7391249;19;20053;-57
2022/12/11 10:00:17;;;;;;;26.73;14.10;;;;;;;2.89;42.04;101229.91;7391728;19;20005;-58
2022/12/11 10:02:53;;;;;;;28.65;13.95;;;;;;;2.81;42.13;101225.09;7387413;19;20003;-58
2022/12/11 10:05:46;;;;;;;29.67;14.20;;;;;;;2.85;42.28;101223.47;7392058;19;20006;-59
2022/12/11 10:08:33;;;;;;;27.58;14.05;;;;;;;2.95;41.87;101231.50;7388681;19;20003;-59
2022/12/11 10:11:34;;;;;;;26.25;13.18;;;;;;;2.95;42.12;101226.09;7388842;19;20338;-59
2022/12/11 10:14:23;;;;;;;28.48;13.60;;;;;;;2.89;42.20;101229.91;7386145;19;20039;-59
2022/12/11 10:16:53;;;;;;;30.58;15.18;;;;;;;2.74;42.50;101221.91;7389251;19;20006;-59
2022/12/11 10:19:25;;;;;;;27.48;13.88;;;;;;;2.90;42.60;101214.53;7394501;19;20003;-59
2022/12/11 10:21:51;;;;;;;29.27;15.02;;;;;;;3.00;42.36;101216.34;7398222;19;20417;-59
2022/12/11 10:24:30;;;;;;;31.98;14.82;;;;;;;3.00;42.00;101213.66;7397177;19;20066;-59
2022/12/11 10:27:00;;;;;;;30.52;13.93;;;;;;;2.85;42.45;101212.69;7398197;19;20018;-59
2022/12/11 10:29:27;;;;;;;28.45;14.43;;;;;;;2.87;42.22;101215.06;7397996;19;20005;-59
2022/12/11 10:31:57;;;;;;;30.58;13.63;;;;;;;2.92;42.18;101213.16;7396873;19;19998;-59
2022/12/11 10:34:26;;;;;;;28.92;14.65;;;;;;;3.11;41.85;101210.63;7394917;19;19998;-60
2022/12/11 10:36:53;;;;;;;30.80;13.95;;;;;;;3.03;42.07;101218.50;7396268;19;19999;-58
2022/12/11 10:39:20;;;;;;;29.00;14.27;;;;;;;3.01;41.99;101215.28;7396692;19;20018;-58
2022/12/11 10:41:48;;;;;;;29.17;14.52;;;;;;;3.19;41.73;101213.81;7396687;19;19990;-58
2022/12/11 10:44:28;;;;;;;29.45;14.05;;;;;;;3.07;42.19;101206.88;7397184;19;20007;-58
2022/12/11 10:47:12;;;;;;;30.92;15.23;;;;;;;3.11;42.08;101209.81;7397349;19;19999;-58
2022/12/11 10:49:43;;;;;;;30.20;14.73;;;;;;;3.13;42.07;101203.03;7397587;19;19999;-58
2022/12/11 10:52:11;;;;;;;30.23;14.18;;;;;;;3.23;41.90;101199.47;7396150;19;20092;-58
2022/12/11 10:54:41;;;;;;;31.10;14.80;;;;;;;3.09;42.03;101201.22;7397921;19;20007;-58
2022/12/11 10:57:10;;;;;;;33.70;15.75;;;;;;;3.05;42.29;101203.66;7396165;19;19999;-58
2022/12/11 10:59:42;;;;;;;33.67;16.90;;;;;;;2.98;42.21;101190.50;7394966;19;20025;-58
2022/12/11 11:02:35;;;;;;;34.33;17.02;;;;;;;2.77;42.93;101197.88;7396093;19;19999;-58
2022/12/11 11:05:12;;;;;;;35.72;15.68;;;;;;;2.93;42.53;101190.50;7396544;19;20019;-59
2022/12/11 11:07:38;;;;;;;31.42;15.85;;;;;;;2.95;42.60;101190.22;7396126;19;20010;-58
2022/12/11 11:10:10;;;;;;;31.80;15.75;;;;;;;2.96;42.31;101191.84;7396739;19;19995;-58
2022/12/11 11:12:38;;;;;;;31.80;15.23;;;;;;;2.87;42.44;101182.72;7391695;19;20001;-59
2022/12/11 11:15:10;;;;;;;32.22;15.48;;;;;;;2.89;42.69;101185.97;7397183;19;20005;-58
2022/12/11 11:17:49;;;;;;;33.25;15.00;;;;;;;2.96;42.63;101175.66;7394816;19;20019;-58
2022/12/11 11:20:18;;;;;;;32.63;15.35;;;;;;;3.10;42.37;101178.53;7396605;19;19998;-57
2022/12/11 11:22:48;;;;;;;32.13;14.90;;;;;;;3.32;41.98;101167.31;7394634;19;19995;-58
2022/12/11 11:25:20;;;;;;;32.65;14.57;;;;;;;3.34;41.78;101165.94;7397162;19;20030;-58
2022/12/11 11:28:08;;;;;;;29.55;15.20;;;;;;;3.44;41.84;101164.28;7396257;19;20009;-57
2022/12/11 11:30:37;;;;;;;33.03;14.57;;;;;;;3.40;41.72;101166.69;7395969;19;19994;-57
2022/12/11 11:33:12;;;;;;;28.73;14.40;;;;;;;3.43;41.78;101159.94;7392590;19;20032;-57